Weather at Perpignan-Rivesaltes (Llabanère) Airport

Public forecast

Using degrees Celsius for public forecast. Weather courtesy of forecast.io.

Current aviation weather report (METAR) for Perpignan-Rivesaltes (Llabanère) Airport

Report is more than 6 hours old.

2022/11/14 15:30 (retrieved 2 years ago)

LFMP 141530Z AUTO 03005KT CAVOK 19/12 Q1015 NOSIG

Aviation forecast (TAF) for Perpignan-Rivesaltes (Llabanère) Airport

Forecast is more than 12 hours old.

2023/02/22 15:47 (retrieved 1 year ago)

TAF LFMP 221400Z 2215/2315 VRB05KT 9999 FEW030 BKN060 TEMPO 2215/2220 SHRA SCT040TCU BKN060 PROB30 TEMPO 2220/2309 4000 BR BKN010 BKN025 BECMG 2311/2313 14014KT